sensor_id;sensor_type;location;lat;lon;timestamp;P1;durP1;ratioP1;P2;durP2;ratioP2
2119;SDS011;1066;52.540;13.420;2023-11-19T00:01:31;10.37;;;6.70;;
2119;SDS011;1066;52.540;13.420;2023-11-19T00:03:57;7.67;;;6.87;;
2119;SDS011;1066;52.540;13.420;2023-11-19T00:06:22;8.60;;;7.10;;
2119;SDS011;1066;52.540;13.420;2023-11-19T00:08:48;6.80;;;6.07;;
2119;SDS011;1066;52.540;13.420;2023-11-19T00:11:13;7.83;;;7.03;;
2119;SDS011;1066;52.540;13.420;2023-11-19T00:13:40;8.40;;;6.80;;
2119;SDS011;1066;52.540;13.420;2023-11-19T00:16:06;7.37;;;6.20;;
2119;SDS011;1066;52.540;13.420;2023-11-19T00:18:32;7.80;;;7.00;;
2119;SDS011;1066;52.540;13.420;2023-11-19T00:20:57;7.13;;;6.50;;
2119;SDS011;1066;52.540;13.420;2023-11-19T00:23:23;7.77;;;6.80;;
2119;SDS011;1066;52.540;13.420;2023-11-19T00:25:48;7.20;;;6.10;;
2119;SDS011;1066;52.540;13.420;2023-11-19T00:28:13;7.37;;;6.67;;
2119;SDS011;1066;52.540;13.420;2023-11-19T00:30:38;7.40;;;6.70;;
2119;SDS011;1066;52.540;13.420;2023-11-19T00:33:05;7.60;;;6.77;;
2119;SDS011;1066;52.540;13.420;2023-11-19T00:35:30;7.10;;;6.40;;
2119;SDS011;1066;52.540;13.420;2023-11-19T00:37:56;7.37;;;6.67;;
2119;SDS011;1066;52.540;13.420;2023-11-19T00:40:23;6.57;;;5.87;;
2119;SDS011;1066;52.540;13.420;2023-11-19T00:42:49;7.30;;;6.20;;
2119;SDS011;1066;52.540;13.420;2023-11-19T00:45:14;7.13;;;6.40;;
2119;SDS011;1066;52.540;13.420;2023-11-19T00:47:39;6.57;;;5.90;;
2119;SDS011;1066;52.540;13.420;2023-11-19T00:50:05;8.73;;;7.07;;
2119;SDS011;1066;52.540;13.420;2023-11-19T00:52:30;7.17;;;5.70;;
2119;SDS011;1066;52.540;13.420;2023-11-19T00:54:55;7.20;;;5.73;;
2119;SDS011;1066;52.540;13.420;2023-11-19T00:57:21;7.63;;;6.90;;
2119;SDS011;1066;52.540;13.420;2023-11-19T00:59:47;6.27;;;5.60;;
2119;SDS011;1066;52.540;13.420;2023-11-19T01:02:12;6.60;;;6.00;;
2119;SDS011;1066;52.540;13.420;2023-11-19T01:04:39;6.20;;;5.57;;
2119;SDS011;1066;52.540;13.420;2023-11-19T01:07:04;5.50;;;5.00;;
2119;SDS011;1066;52.540;13.420;2023-11-19T01:09:30;6.80;;;6.00;;
2119;SDS011;1066;52.540;13.420;2023-11-19T01:11:57;5.73;;;5.20;;
2119;SDS011;1066;52.540;13.420;2023-11-19T01:14:23;6.80;;;6.20;;
2119;SDS011;1066;52.540;13.420;2023-11-19T01:16:48;7.00;;;6.30;;
2119;SDS011;1066;52.540;13.420;2023-11-19T01:19:13;7.50;;;6.20;;
2119;SDS011;1066;52.540;13.420;2023-11-19T01:21:40;6.43;;;5.83;;
2119;SDS011;1066;52.540;13.420;2023-11-19T01:24:05;7.10;;;6.20;;
2119;SDS011;1066;52.540;13.420;2023-11-19T01:26:34;7.27;;;5.40;;
2119;SDS011;1066;52.540;13.420;2023-11-19T01:28:59;6.50;;;5.90;;
2119;SDS011;1066;52.540;13.420;2023-11-19T01:31:26;6.57;;;5.97;;
2119;SDS011;1066;52.540;13.420;2023-11-19T01:33:51;7.20;;;5.80;;
2119;SDS011;1066;52.540;13.420;2023-11-19T01:36:16;5.97;;;5.27;;
2119;SDS011;1066;52.540;13.420;2023-11-19T01:38:41;6.87;;;5.70;;
2119;SDS011;1066;52.540;13.420;2023-11-19T01:41:07;6.57;;;5.73;;
2119;SDS011;1066;52.540;13.420;2023-11-19T01:43:39;6.03;;;4.50;;
2119;SDS011;1066;52.540;13.420;2023-11-19T01:46:06;6.13;;;5.53;;
2119;SDS011;1066;52.540;13.420;2023-11-19T01:48:35;5.57;;;5.07;;
2119;SDS011;1066;52.540;13.420;2023-11-19T01:51:01;7.93;;;6.10;;
2119;SDS011;1066;52.540;13.420;2023-11-19T01:53:27;6.60;;;6.00;;
2119;SDS011;1066;52.540;13.420;2023-11-19T01:55:54;6.33;;;5.73;;
2119;SDS011;1066;52.540;13.420;2023-11-19T01:58:19;6.47;;;5.87;;
2119;SDS011;1066;52.540;13.420;2023-11-19T02:00:45;8.30;;;5.90;;
2119;SDS011;1066;52.540;13.420;2023-11-19T02:03:10;6.30;;;5.00;;
2119;SDS011;1066;52.540;13.420;2023-11-19T02:05:36;5.70;;;5.20;;
2119;SDS011;1066;52.540;13.420;2023-11-19T02:08:02;6.63;;;5.30;;
2119;SDS011;1066;52.540;13.420;2023-11-19T02:10:28;6.20;;;5.60;;
2119;SDS011;1066;52.540;13.420;2023-11-19T02:12:53;7.43;;;5.33;;
2119;SDS011;1066;52.540;13.420;2023-11-19T02:15:20;7.27;;;5.30;;
2119;SDS011;1066;52.540;13.420;2023-11-19T02:17:46;6.47;;;5.60;;
2119;SDS011;1066;52.540;13.420;2023-11-19T02:20:12;6.83;;;5.70;;
2119;SDS011;1066;52.540;13.420;2023-11-19T02:22:42;5.70;;;5.10;;
2119;SDS011;1066;52.540;13.420;2023-11-19T02:25:08;8.43;;;6.23;;
2119;SDS011;1066;52.540;13.420;2023-11-19T02:27:41;5.90;;;5.30;;
2119;SDS011;1066;52.540;13.420;2023-11-19T02:30:06;6.80;;;6.20;;
2119;SDS011;1066;52.540;13.420;2023-11-19T02:32:33;6.07;;;5.47;;
2119;SDS011;1066;52.540;13.420;2023-11-19T02:34:59;6.50;;;5.90;;
2119;SDS011;1066;52.540;13.420;2023-11-19T02:37:24;5.83;;;5.33;;
2119;SDS011;1066;52.540;13.420;2023-11-19T02:39:49;5.50;;;5.00;;
2119;SDS011;1066;52.540;13.420;2023-11-19T02:42:14;5.37;;;4.87;;
2119;SDS011;1066;52.540;13.420;2023-11-19T02:44:43;5.73;;;5.20;;
2119;SDS011;1066;52.540;13.420;2023-11-19T02:47:08;5.60;;;4.50;;
2119;SDS011;1066;52.540;13.420;2023-11-19T02:49:34;4.83;;;4.00;;
2119;SDS011;1066;52.540;13.420;2023-11-19T02:51:59;6.40;;;5.17;;
2119;SDS011;1066;52.540;13.420;2023-11-19T02:54:24;5.83;;;4.97;;
2119;SDS011;1066;52.540;13.420;2023-11-19T02:56:52;5.00;;;4.50;;
2119;SDS011;1066;52.540;13.420;2023-11-19T02:59:20;5.40;;;4.80;;
2119;SDS011;1066;52.540;13.420;2023-11-19T03:01:52;3.87;;;3.57;;
2119;SDS011;1066;52.540;13.420;2023-11-19T03:04:18;5.17;;;4.70;;
2119;SDS011;1066;52.540;13.420;2023-11-19T03:06:45;5.90;;;4.60;;
2119;SDS011;1066;52.540;13.420;2023-11-19T03:09:10;5.33;;;4.17;;
2119;SDS011;1066;52.540;13.420;2023-11-19T03:11:35;4.70;;;4.30;;
2119;SDS011;1066;52.540;13.420;2023-11-19T03:14:01;4.17;;;3.77;;
2119;SDS011;1066;52.540;13.420;2023-11-19T03:16:28;6.03;;;4.90;;
2119;SDS011;1066;52.540;13.420;2023-11-19T03:18:53;4.00;;;3.60;;
2119;SDS011;1066;52.540;13.420;2023-11-19T03:21:18;4.50;;;4.10;;
2119;SDS011;1066;52.540;13.420;2023-11-19T03:23:43;4.87;;;4.40;;
2119;SDS011;1066;52.540;13.420;2023-11-19T03:26:10;5.07;;;4.47;;
2119;SDS011;1066;52.540;13.420;2023-11-19T03:28:35;4.50;;;4.10;;
2119;SDS011;1066;52.540;13.420;2023-11-19T03:31:00;5.00;;;4.50;;
2119;SDS011;1066;52.540;13.420;2023-11-19T03:33:26;4.90;;;4.50;;
2119;SDS011;1066;52.540;13.420;2023-11-19T03:35:52;4.40;;;4.00;;
2119;SDS011;1066;52.540;13.420;2023-11-19T03:38:18;5.63;;;4.40;;
2119;SDS011;1066;52.540;13.420;2023-11-19T03:40:43;4.60;;;4.17;;
2119;SDS011;1066;52.540;13.420;2023-11-19T03:43:08;6.07;;;4.50;;
2119;SDS011;1066;52.540;13.420;2023-11-19T03:45:34;5.90;;;4.80;;
2119;SDS011;1066;52.540;13.420;2023-11-19T03:48:01;6.17;;;5.57;;
2119;SDS011;1066;52.540;13.420;2023-11-19T03:50:26;7.43;;;4.47;;
2119;SDS011;1066;52.540;13.420;2023-11-19T03:52:51;5.27;;;4.40;;
2119;SDS011;1066;52.540;13.420;2023-11-19T03:55:17;5.07;;;4.57;;
2119;SDS011;1066;52.540;13.420;2023-11-19T03:57:42;6.20;;;5.40;;
2119;SDS011;1066;52.540;13.420;2023-11-19T04:00:08;8.73;;;6.60;;
2119;SDS011;1066;52.540;13.420;2023-11-19T04:02:35;6.40;;;5.80;;
2119;SDS011;1066;52.540;13.420;2023-11-19T04:05:01;7.40;;;6.07;;
2119;SDS011;1066;52.540;13.420;2023-11-19T04:07:26;6.70;;;6.10;;
2119;SDS011;1066;52.540;13.420;2023-11-19T04:09:51;7.60;;;6.90;;
2119;SDS011;1066;52.540;13.420;2023-11-19T04:12:16;6.70;;;6.10;;
2119;SDS011;1066;52.540;13.420;2023-11-19T04:14:42;5.80;;;5.30;;
2119;SDS011;1066;52.540;13.420;2023-11-19T04:17:07;6.17;;;5.67;;
2119;SDS011;1066;52.540;13.420;2023-11-19T04:19:32;6.70;;;6.00;;
2119;SDS011;1066;52.540;13.420;2023-11-19T04:21:57;7.40;;;6.30;;
2119;SDS011;1066;52.540;13.420;2023-11-19T04:24:23;6.57;;;5.73;;
2119;SDS011;1066;52.540;13.420;2023-11-19T04:26:49;7.80;;;6.40;;
2119;SDS011;1066;52.540;13.420;2023-11-19T04:29:15;8.20;;;6.23;;
2119;SDS011;1066;52.540;13.420;2023-11-19T04:31:42;7.97;;;7.17;;
2119;SDS011;1066;52.540;13.420;2023-11-19T04:34:07;7.83;;;6.83;;
2119;SDS011;1066;52.540;13.420;2023-11-19T04:36:33;7.60;;;6.10;;
2119;SDS011;1066;52.540;13.420;2023-11-19T04:38:58;14.53;;;6.40;;
2119;SDS011;1066;52.540;13.420;2023-11-19T04:41:24;7.40;;;6.70;;
2119;SDS011;1066;52.540;13.420;2023-11-19T04:43:49;7.83;;;6.80;;
2119;SDS011;1066;52.540;13.420;2023-11-19T04:46:15;9.73;;;6.60;;
2119;SDS011;1066;52.540;13.420;2023-11-19T04:48:40;8.13;;;7.33;;
2119;SDS011;1066;52.540;13.420;2023-11-19T04:51:06;8.20;;;6.40;;
2119;SDS011;1066;52.540;13.420;2023-11-19T04:53:31;7.50;;;6.73;;
2119;SDS011;1066;52.540;13.420;2023-11-19T04:55:56;7.70;;;7.00;;
2119;SDS011;1066;52.540;13.420;2023-11-19T04:58:21;9.83;;;7.73;;
2119;SDS011;1066;52.540;13.420;2023-11-19T05:00:47;8.33;;;6.77;;
2119;SDS011;1066;52.540;13.420;2023-11-19T05:03:12;13.40;;;8.00;;
2119;SDS011;1066;52.540;13.420;2023-11-19T05:05:38;8.00;;;7.20;;
2119;SDS011;1066;52.540;13.420;2023-11-19T05:08:03;12.70;;;6.40;;
2119;SDS011;1066;52.540;13.420;2023-11-19T05:10:28;8.67;;;7.47;;
2119;SDS011;1066;52.540;13.420;2023-11-19T05:12:53;15.93;;;7.73;;
2119;SDS011;1066;52.540;13.420;2023-11-19T05:15:21;9.33;;;8.43;;
2119;SDS011;1066;52.540;13.420;2023-11-19T05:17:46;19.53;;;8.20;;
2119;SDS011;1066;52.540;13.420;2023-11-19T05:20:11;6.70;;;6.00;;
2119;SDS011;1066;52.540;13.420;2023-11-19T05:22:41;9.40;;;6.60;;
2119;SDS011;1066;52.540;13.420;2023-11-19T05:25:07;10.23;;;7.17;;
2119;SDS011;1066;52.540;13.420;2023-11-19T05:27:33;9.87;;;6.43;;
2119;SDS011;1066;52.540;13.420;2023-11-19T05:29:58;8.93;;;7.67;;
2119;SDS011;1066;52.540;13.420;2023-11-19T05:32:23;16.63;;;8.17;;
2119;SDS011;1066;52.540;13.420;2023-11-19T05:34:48;8.57;;;6.40;;
2119;SDS011;1066;52.540;13.420;2023-11-19T05:37:13;8.83;;;7.33;;
2119;SDS011;1066;52.540;13.420;2023-11-19T05:39:39;16.83;;;7.20;;
2119;SDS011;1066;52.540;13.420;2023-11-19T05:42:04;12.87;;;6.30;;
2119;SDS011;1066;52.540;13.420;2023-11-19T05:44:30;13.03;;;7.60;;
2119;SDS011;1066;52.540;13.420;2023-11-19T05:46:55;9.60;;;6.27;;
2119;SDS011;1066;52.540;13.420;2023-11-19T05:49:20;7.30;;;6.60;;
2119;SDS011;1066;52.540;13.420;2023-11-19T05:51:45;7.40;;;5.90;;
2119;SDS011;1066;52.540;13.420;2023-11-19T05:54:11;8.30;;;7.27;;
2119;SDS011;1066;52.540;13.420;2023-11-19T05:56:36;10.53;;;6.67;;
2119;SDS011;1066;52.540;13.420;2023-11-19T05:59:02;14.00;;;6.63;;
2119;SDS011;1066;52.540;13.420;2023-11-19T06:01:31;7.70;;;6.03;;
2119;SDS011;1066;52.540;13.420;2023-11-19T06:03:57;11.27;;;7.50;;
2119;SDS011;1066;52.540;13.420;2023-11-19T06:06:22;7.13;;;6.43;;
2119;SDS011;1066;52.540;13.420;2023-11-19T06:08:47;8.30;;;5.63;;
2119;SDS011;1066;52.540;13.420;2023-11-19T06:11:12;7.33;;;6.30;;
2119;SDS011;1066;52.540;13.420;2023-11-19T06:13:43;7.93;;;7.13;;
2119;SDS011;1066;52.540;13.420;2023-11-19T06:16:08;7.10;;;6.40;;
2119;SDS011;1066;52.540;13.420;2023-11-19T06:18:33;8.20;;;6.27;;
2119;SDS011;1066;52.540;13.420;2023-11-19T06:20:58;8.53;;;6.13;;
2119;SDS011;1066;52.540;13.420;2023-11-19T06:23:23;6.20;;;5.60;;
2119;SDS011;1066;52.540;13.420;2023-11-19T06:25:49;7.60;;;6.27;;
2119;SDS011;1066;52.540;13.420;2023-11-19T06:28:14;7.67;;;5.97;;
2119;SDS011;1066;52.540;13.420;2023-11-19T06:30:39;7.27;;;5.43;;
2119;SDS011;1066;52.540;13.420;2023-11-19T06:33:05;5.73;;;5.23;;
2119;SDS011;1066;52.540;13.420;2023-11-19T06:35:31;5.80;;;5.30;;
2119;SDS011;1066;52.540;13.420;2023-11-19T06:38:01;6.20;;;5.60;;
2119;SDS011;1066;52.540;13.420;2023-11-19T06:40:26;7.27;;;6.00;;
2119;SDS011;1066;52.540;13.420;2023-11-19T06:42:52;6.17;;;5.57;;
2119;SDS011;1066;52.540;13.420;2023-11-19T06:45:17;7.00;;;5.83;;
2119;SDS011;1066;52.540;13.420;2023-11-19T06:47:42;6.07;;;5.47;;
2119;SDS011;1066;52.540;13.420;2023-11-19T06:50:07;6.07;;;5.50;;
2119;SDS011;1066;52.540;13.420;2023-11-19T06:52:34;6.00;;;5.37;;
2119;SDS011;1066;52.540;13.420;2023-11-19T06:54:59;5.77;;;4.83;;
2119;SDS011;1066;52.540;13.420;2023-11-19T06:57:24;13.47;;;5.63;;
2119;SDS011;1066;52.540;13.420;2023-11-19T06:59:50;5.30;;;4.80;;
2119;SDS011;1066;52.540;13.420;2023-11-19T07:02:15;6.73;;;5.30;;
2119;SDS011;1066;52.540;13.420;2023-11-19T07:04:40;6.00;;;5.20;;
2119;SDS011;1066;52.540;13.420;2023-11-19T07:07:05;6.97;;;5.70;;
2119;SDS011;1066;52.540;13.420;2023-11-19T07:09:31;5.90;;;5.13;;
2119;SDS011;1066;52.540;13.420;2023-11-19T07:11:57;6.13;;;5.20;;
2119;SDS011;1066;52.540;13.420;2023-11-19T07:14:22;7.43;;;5.23;;
2119;SDS011;1066;52.540;13.420;2023-11-19T07:16:48;5.57;;;5.07;;
2119;SDS011;1066;52.540;13.420;2023-11-19T07:19:15;7.40;;;5.43;;
2119;SDS011;1066;52.540;13.420;2023-11-19T07:21:43;9.73;;;4.43;;
2119;SDS011;1066;52.540;13.420;2023-11-19T07:24:11;5.23;;;4.70;;
2119;SDS011;1066;52.540;13.420;2023-11-19T07:26:41;4.80;;;4.30;;
2119;SDS011;1066;52.540;13.420;2023-11-19T07:29:06;6.33;;;5.30;;
2119;SDS011;1066;52.540;13.420;2023-11-19T07:31:32;5.30;;;4.80;;
2119;SDS011;1066;52.540;13.420;2023-11-19T07:33:58;4.50;;;4.10;;
2119;SDS011;1066;52.540;13.420;2023-11-19T07:36:23;5.70;;;5.20;;
2119;SDS011;1066;52.540;13.420;2023-11-19T07:38:48;4.80;;;4.40;;
2119;SDS011;1066;52.540;13.420;2023-11-19T07:41:13;4.67;;;4.30;;
2119;SDS011;1066;52.540;13.420;2023-11-19T07:43:39;4.60;;;4.20;;
2119;SDS011;1066;52.540;13.420;2023-11-19T07:46:04;5.73;;;4.87;;
2119;SDS011;1066;52.540;13.420;2023-11-19T07:48:29;8.60;;;5.13;;
2119;SDS011;1066;52.540;13.420;2023-11-19T07:50:55;5.07;;;4.57;;
2119;SDS011;1066;52.540;13.420;2023-11-19T07:53:20;7.33;;;4.80;;
2119;SDS011;1066;52.540;13.420;2023-11-19T07:55:45;5.70;;;4.70;;
2119;SDS011;1066;52.540;13.420;2023-11-19T07:58:11;6.87;;;5.73;;
2119;SDS011;1066;52.540;13.420;2023-11-19T08:00:37;7.23;;;5.17;;
2119;SDS011;1066;52.540;13.420;2023-11-19T08:03:02;5.30;;;4.70;;
2119;SDS011;1066;52.540;13.420;2023-11-19T08:05:28;6.03;;;4.80;;
2119;SDS011;1066;52.540;13.420;2023-11-19T08:07:53;5.50;;;5.00;;
2119;SDS011;1066;52.540;13.420;2023-11-19T08:10:19;7.03;;;5.07;;
2119;SDS011;1066;52.540;13.420;2023-11-19T08:12:44;6.13;;;5.53;;
2119;SDS011;1066;52.540;13.420;2023-11-19T08:15:09;5.53;;;5.03;;
2119;SDS011;1066;52.540;13.420;2023-11-19T08:17:34;5.67;;;5.17;;
2119;SDS011;1066;52.540;13.420;2023-11-19T08:20:00;6.07;;;5.57;;
2119;SDS011;1066;52.540;13.420;2023-11-19T08:22:25;5.93;;;5.00;;
2119;SDS011;1066;52.540;13.420;2023-11-19T08:24:50;6.67;;;5.50;;
2119;SDS011;1066;52.540;13.420;2023-11-19T08:27:15;6.40;;;5.53;;
2119;SDS011;1066;52.540;13.420;2023-11-19T08:29:40;7.37;;;6.07;;
2119;SDS011;1066;52.540;13.420;2023-11-19T08:32:06;5.47;;;4.97;;
2119;SDS011;1066;52.540;13.420;2023-11-19T08:34:32;6.77;;;5.43;;
2119;SDS011;1066;52.540;13.420;2023-11-19T08:36:57;6.50;;;5.90;;
2119;SDS011;1066;52.540;13.420;2023-11-19T08:39:22;6.03;;;5.33;;
2119;SDS011;1066;52.540;13.420;2023-11-19T08:41:47;8.40;;;6.47;;
2119;SDS011;1066;52.540;13.420;2023-11-19T08:44:13;15.20;;;8.43;;
2119;SDS011;1066;52.540;13.420;2023-11-19T08:46:38;10.40;;;7.30;;
2119;SDS011;1066;52.540;13.420;2023-11-19T08:49:04;12.40;;;6.70;;
2119;SDS011;1066;52.540;13.420;2023-11-19T08:51:30;6.87;;;6.13;;
2119;SDS011;1066;52.540;13.420;2023-11-19T08:53:55;5.47;;;4.97;;
2119;SDS011;1066;52.540;13.420;2023-11-19T08:56:20;5.93;;;5.33;;
2119;SDS011;1066;52.540;13.420;2023-11-19T08:58:46;10.53;;;6.17;;
2119;SDS011;1066;52.540;13.420;2023-11-19T09:01:11;8.53;;;5.90;;
2119;SDS011;1066;52.540;13.420;2023-11-19T09:03:36;6.63;;;5.80;;
2119;SDS011;1066;52.540;13.420;2023-11-19T09:06:02;7.20;;;6.23;;
2119;SDS011;1066;52.540;13.420;2023-11-19T09:08:27;5.43;;;4.90;;
2119;SDS011;1066;52.540;13.420;2023-11-19T09:10:52;6.47;;;5.87;;
2119;SDS011;1066;52.540;13.420;2023-11-19T09:13:18;8.83;;;6.77;;
2119;SDS011;1066;52.540;13.420;2023-11-19T09:15:43;6.43;;;5.63;;
2119;SDS011;1066;52.540;13.420;2023-11-19T09:18:08;5.63;;;5.13;;
2119;SDS011;1066;52.540;13.420;2023-11-19T09:20:33;6.63;;;5.50;;
2119;SDS011;1066;52.540;13.420;2023-11-19T09:23:03;5.27;;;4.77;;
2119;SDS011;1066;52.540;13.420;2023-11-19T09:25:28;5.20;;;4.73;;
2119;SDS011;1066;52.540;13.420;2023-11-19T09:27:53;5.77;;;5.17;;
2119;SDS011;1066;52.540;13.420;2023-11-19T09:30:19;5.33;;;4.83;;
2119;SDS011;1066;52.540;13.420;2023-11-19T09:32:44;5.67;;;5.07;;
2119;SDS011;1066;52.540;13.420;2023-11-19T09:35:09;6.23;;;4.70;;
2119;SDS011;1066;52.540;13.420;2023-11-19T09:37:38;5.07;;;4.57;;
2119;SDS011;1066;52.540;13.420;2023-11-19T09:40:04;5.10;;;4.57;;
2119;SDS011;1066;52.540;13.420;2023-11-19T09:42:29;7.30;;;5.50;;
2119;SDS011;1066;52.540;13.420;2023-11-19T09:44:56;5.40;;;4.90;;
2119;SDS011;1066;52.540;13.420;2023-11-19T09:47:21;6.13;;;5.63;;
2119;SDS011;1066;52.540;13.420;2023-11-19T09:49:47;6.80;;;5.10;;
2119;SDS011;1066;52.540;13.420;2023-11-19T09:52:13;5.67;;;5.10;;
2119;SDS011;1066;52.540;13.420;2023-11-19T09:54:39;5.47;;;4.77;;
2119;SDS011;1066;52.540;13.420;2023-11-19T09:57:04;9.00;;;5.30;;
2119;SDS011;1066;52.540;13.420;2023-11-19T09:59:33;6.53;;;4.97;;
2119;SDS011;1066;52.540;13.420;2023-11-19T10:01:58;5.70;;;5.20;;
2119;SDS011;1066;52.540;13.420;2023-11-19T10:04:24;5.57;;;5.07;;
2119;SDS011;1066;52.540;13.420;2023-11-19T10:06:50;5.60;;;4.53;;
2119;SDS011;1066;52.540;13.420;2023-11-19T10:09:16;10.90;;;5.90;;
2119;SDS011;1066;52.540;13.420;2023-11-19T10:11:41;5.03;;;4.53;;
2119;SDS011;1066;52.540;13.420;2023-11-19T10:14:06;9.93;;;4.70;;
2119;SDS011;1066;52.540;13.420;2023-11-19T10:16:34;6.80;;;4.13;;
2119;SDS011;1066;52.540;13.420;2023-11-19T10:18:59;5.33;;;3.90;;
2119;SDS011;1066;52.540;13.420;2023-11-19T10:21:24;5.30;;;4.80;;
2119;SDS011;1066;52.540;13.420;2023-11-19T10:23:53;5.03;;;3.43;;
2119;SDS011;1066;52.540;13.420;2023-11-19T10:26:19;3.50;;;3.20;;
2119;SDS011;1066;52.540;13.420;2023-11-19T10:28:48;6.60;;;4.70;;
2119;SDS011;1066;52.540;13.420;2023-11-19T10:31:14;4.43;;;4.03;;
2119;SDS011;1066;52.540;13.420;2023-11-19T10:33:39;4.80;;;4.07;;
2119;SDS011;1066;52.540;13.420;2023-11-19T10:36:04;4.40;;;3.70;;
2119;SDS011;1066;52.540;13.420;2023-11-19T10:38:30;10.53;;;3.73;;
2119;SDS011;1066;52.540;13.420;2023-11-19T10:40:55;4.30;;;3.23;;
2119;SDS011;1066;52.540;13.420;2023-11-19T10:43:21;4.60;;;3.40;;
2119;SDS011;1066;52.540;13.420;2023-11-19T10:45:50;4.23;;;3.70;;
2119;SDS011;1066;52.540;13.420;2023-11-19T10:48:16;4.10;;;3.20;;
2119;SDS011;1066;52.540;13.420;2023-11-19T10:50:42;4.03;;;3.67;;
2119;SDS011;1066;52.540;13.420;2023-11-19T10:53:08;5.10;;;3.40;;
2119;SDS011;1066;52.540;13.420;2023-11-19T10:55:34;8.03;;;3.73;;
2119;SDS011;1066;52.540;13.420;2023-11-19T10:58:03;7.53;;;3.97;;
2119;SDS011;1066;52.540;13.420;2023-11-19T11:00:29;3.87;;;2.93;;
2119;SDS011;1066;52.540;13.420;2023-11-19T11:02:59;5.50;;;4.13;;
2119;SDS011;1066;52.540;13.420;2023-11-19T11:05:25;7.47;;;3.90;;
2119;SDS011;1066;52.540;13.420;2023-11-19T11:07:51;7.93;;;3.67;;
2119;SDS011;1066;52.540;13.420;2023-11-19T11:10:17;5.93;;;4.00;;
2119;SDS011;1066;52.540;13.420;2023-11-19T11:12:43;9.37;;;4.10;;
2119;SDS011;1066;52.540;13.420;2023-11-19T11:15:08;10.67;;;4.00;;
2119;SDS011;1066;52.540;13.420;2023-11-19T11:17:36;6.10;;;3.70;;
2119;SDS011;1066;52.540;13.420;2023-11-19T11:20:04;4.63;;;3.47;;
2119;SDS011;1066;52.540;13.420;2023-11-19T11:22:30;6.70;;;4.70;;
2119;SDS011;1066;52.540;13.420;2023-11-19T11:27:30;15.80;;;5.53;;
2119;SDS011;1066;52.540;13.420;2023-11-19T11:32:45;11.73;;;4.50;;
2119;SDS011;1066;52.540;13.420;2023-11-19T11:38:04;8.97;;;3.40;;
2119;SDS011;1066;52.540;13.420;2023-11-19T11:40:29;9.63;;;4.80;;
2119;SDS011;1066;52.540;13.420;2023-11-19T11:42:54;7.90;;;4.23;;
2119;SDS011;1066;52.540;13.420;2023-11-19T11:45:19;12.93;;;5.47;;
2119;SDS011;1066;52.540;13.420;2023-11-19T11:50:34;8.93;;;4.50;;
2119;SDS011;1066;52.540;13.420;2023-11-19T11:58:17;10.20;;;4.53;;
2119;SDS011;1066;52.540;13.420;2023-11-19T12:00:42;10.90;;;4.80;;
2119;SDS011;1066;52.540;13.420;2023-11-19T12:03:08;11.47;;;5.30;;
2119;SDS011;1066;52.540;13.420;2023-11-19T12:05:43;12.60;;;4.30;;
2119;SDS011;1066;52.540;13.420;2023-11-19T12:08:09;10.30;;;5.90;;
2119;SDS011;1066;52.540;13.420;2023-11-19T12:10:36;9.73;;;4.20;;
2119;SDS011;1066;52.540;13.420;2023-11-19T12:13:06;12.43;;;5.10;;
2119;SDS011;1066;52.540;13.420;2023-11-19T12:15:32;9.97;;;4.00;;
2119;SDS011;1066;52.540;13.420;2023-11-19T12:17:57;8.27;;;4.77;;
2119;SDS011;1066;52.540;13.420;2023-11-19T12:20:26;13.93;;;5.50;;
2119;SDS011;1066;52.540;13.420;2023-11-19T12:22:52;12.53;;;5.10;;
2119;SDS011;1066;52.540;13.420;2023-11-19T12:25:17;10.40;;;4.50;;
2119;SDS011;1066;52.540;13.420;2023-11-19T12:27:47;13.13;;;5.03;;
2119;SDS011;1066;52.540;13.420;2023-11-19T12:30:16;10.97;;;4.40;;
2119;SDS011;1066;52.540;13.420;2023-11-19T12:32:42;10.93;;;4.77;;
2119;SDS011;1066;52.540;13.420;2023-11-19T12:35:08;11.67;;;4.90;;
2119;SDS011;1066;52.540;13.420;2023-11-19T12:37:42;12.60;;;6.00;;
2119;SDS011;1066;52.540;13.420;2023-11-19T12:40:18;12.37;;;5.07;;
2119;SDS011;1066;52.540;13.420;2023-11-19T12:42:44;10.20;;;4.90;;
2119;SDS011;1066;52.540;13.420;2023-11-19T12:45:10;15.30;;;4.87;;
2119;SDS011;1066;52.540;13.420;2023-11-19T12:47:39;16.33;;;5.63;;
2119;SDS011;1066;52.540;13.420;2023-11-19T12:50:05;17.47;;;5.70;;
2119;SDS011;1066;52.540;13.420;2023-11-19T12:52:30;13.70;;;5.77;;
2119;SDS011;1066;52.540;13.420;2023-11-19T12:54:55;11.53;;;6.00;;
2119;SDS011;1066;52.540;13.420;2023-11-19T12:57:35;13.93;;;6.10;;
2119;SDS011;1066;52.540;13.420;2023-11-19T13:00:00;9.20;;;4.63;;
2119;SDS011;1066;52.540;13.420;2023-11-19T13:02:43;7.80;;;4.43;;
2119;SDS011;1066;52.540;13.420;2023-11-19T13:05:24;10.53;;;4.70;;
2119;SDS011;1066;52.540;13.420;2023-11-19T13:08:13;9.73;;;5.80;;
2119;SDS011;1066;52.540;13.420;2023-11-19T13:10:51;14.20;;;4.90;;
2119;SDS011;1066;52.540;13.420;2023-11-19T13:13:17;9.27;;;5.33;;
2119;SDS011;1066;52.540;13.420;2023-11-19T13:15:42;14.43;;;5.40;;
2119;SDS011;1066;52.540;13.420;2023-11-19T13:18:09;9.87;;;5.00;;
2119;SDS011;1066;52.540;13.420;2023-11-19T13:20:35;10.70;;;4.97;;
2119;SDS011;1066;52.540;13.420;2023-11-19T13:23:01;20.70;;;5.70;;
2119;SDS011;1066;52.540;13.420;2023-11-19T13:25:27;14.83;;;5.80;;
2119;SDS011;1066;52.540;13.420;2023-11-19T13:27:52;18.17;;;6.43;;
2119;SDS011;1066;52.540;13.420;2023-11-19T13:30:18;17.13;;;6.57;;
2119;SDS011;1066;52.540;13.420;2023-11-19T13:32:43;10.93;;;5.00;;
2119;SDS011;1066;52.540;13.420;2023-11-19T13:35:10;10.60;;;5.30;;
2119;SDS011;1066;52.540;13.420;2023-11-19T13:37:36;12.83;;;5.50;;
2119;SDS011;1066;52.540;13.420;2023-11-19T13:40:01;14.40;;;6.03;;
2119;SDS011;1066;52.540;13.420;2023-11-19T13:42:28;13.33;;;4.90;;
2119;SDS011;1066;52.540;13.420;2023-11-19T13:44:53;12.20;;;5.30;;
2119;SDS011;1066;52.540;13.420;2023-11-19T13:47:18;9.30;;;5.30;;
2119;SDS011;1066;52.540;13.420;2023-11-19T13:49:47;21.53;;;5.53;;
2119;SDS011;1066;52.540;13.420;2023-11-19T13:52:12;15.87;;;11.00;;
2119;SDS011;1066;52.540;13.420;2023-11-19T13:54:37;22.30;;;10.10;;
2119;SDS011;1066;52.540;13.420;2023-11-19T13:57:03;21.30;;;7.43;;
2119;SDS011;1066;52.540;13.420;2023-11-19T13:59:29;13.37;;;7.00;;
2119;SDS011;1066;52.540;13.420;2023-11-19T14:01:54;16.00;;;9.00;;
2119;SDS011;1066;52.540;13.420;2023-11-19T14:04:19;16.80;;;10.30;;
2119;SDS011;1066;52.540;13.420;2023-11-19T14:06:45;18.00;;;10.10;;
2119;SDS011;1066;52.540;13.420;2023-11-19T14:09:10;25.30;;;16.40;;
2119;SDS011;1066;52.540;13.420;2023-11-19T14:11:35;30.63;;;19.87;;
2119;SDS011;1066;52.540;13.420;2023-11-19T14:14:00;21.10;;;8.90;;
2119;SDS011;1066;52.540;13.420;2023-11-19T14:16:26;17.20;;;8.60;;
2119;SDS011;1066;52.540;13.420;2023-11-19T14:18:51;17.23;;;6.30;;
2119;SDS011;1066;52.540;13.420;2023-11-19T14:21:17;16.30;;;6.57;;
2119;SDS011;1066;52.540;13.420;2023-11-19T14:23:42;18.13;;;6.83;;
2119;SDS011;1066;52.540;13.420;2023-11-19T14:26:07;22.03;;;8.90;;
2119;SDS011;1066;52.540;13.420;2023-11-19T14:28:33;20.30;;;6.77;;
2119;SDS011;1066;52.540;13.420;2023-11-19T14:30:58;22.67;;;9.27;;
2119;SDS011;1066;52.540;13.420;2023-11-19T14:33:23;16.13;;;6.70;;
2119;SDS011;1066;52.540;13.420;2023-11-19T14:35:49;25.30;;;8.90;;
2119;SDS011;1066;52.540;13.420;2023-11-19T14:38:14;13.10;;;6.47;;
2119;SDS011;1066;52.540;13.420;2023-11-19T14:40:39;19.90;;;6.43;;
2119;SDS011;1066;52.540;13.420;2023-11-19T14:43:04;15.07;;;6.30;;
2119;SDS011;1066;52.540;13.420;2023-11-19T14:45:30;19.10;;;8.70;;
2119;SDS011;1066;52.540;13.420;2023-11-19T14:47:55;19.70;;;7.57;;
2119;SDS011;1066;52.540;13.420;2023-11-19T14:50:20;25.87;;;11.83;;
2119;SDS011;1066;52.540;13.420;2023-11-19T14:52:45;17.37;;;6.57;;
2119;SDS011;1066;52.540;13.420;2023-11-19T14:55:11;18.20;;;7.37;;
2119;SDS011;1066;52.540;13.420;2023-11-19T14:57:36;19.30;;;6.60;;
2119;SDS011;1066;52.540;13.420;2023-11-19T15:00:04;12.50;;;5.83;;
2119;SDS011;1066;52.540;13.420;2023-11-19T15:02:37;12.57;;;5.13;;
2119;SDS011;1066;52.540;13.420;2023-11-19T15:05:03;12.80;;;6.80;;
2119;SDS011;1066;52.540;13.420;2023-11-19T15:07:28;21.33;;;7.40;;